ADDS METAR Data INFO
IDs: Format: Raw Decoded Include TAF

Data at: 0320 UTC 16 Dec 2017

KC07 160312Z AUTO 23007KT 10SM CLR M03/M18 A3009 RMK AO2
KC07 160254Z AUTO 23006KT 10SM CLR M03/M17 A3010 RMK AO2
KC07 160230Z AUTO 23005KT 10SM CLR M03/M17 A3010 RMK AO2
KC07 160212Z AUTO 22007KT 10SM CLR M03/M17 A3011 RMK AO2
KC07 160154Z AUTO 22005KT 10SM CLR M03/M18 A3012 RMK AO2
KC07 160130Z AUTO 22007KT 10SM CLR M02/M18 A3012 RMK AO2
KC07 160112Z AUTO 22007KT 10SM CLR M02/M18 A3012 RMK AO2
KC07 160054Z AUTO 23006KT 10SM CLR M02/M18 A3012 RMK AO2
KC07 160030Z AUTO 23006KT 10SM CLR M02/M18 A3012 RMK AO2
KC07 160012Z AUTO 22008G14KT 10SM CLR M02/M17 A3013 RMK AO2
KC07 152354Z AUTO 23007KT 10SM CLR M02/M17 A3013 RMK AO2
KC07 152330Z AUTO 24004KT 10SM CLR M02/M17 A3015 RMK AO2
KC07 152312Z AUTO 24005KT 10SM CLR M02/M18 A3016 RMK AO2
KC07 152253Z AUTO 25005KT 10SM CLR M02/M17 A3016 RMK AO2
KC07 152229Z AUTO 26006KT 10SM CLR M01/M17 A3017 RMK AO2
KC07 152211Z AUTO 27008KT 230V290 10SM CLR M01/M17 A3017 RMK AO2
KC07 152154Z AUTO 27008KT 10SM CLR M01/M17 A3017 RMK AO2
KC07 152130Z AUTO 27006KT 10SM CLR M01/M18 A3017 RMK AO2
KC07 152112Z AUTO 26006KT 10SM CLR M01/M16 A3017 RMK AO2
KC07 152053Z AUTO 26006KT 10SM CLR M01/M17 A3018 RMK AO2
KC07 152029Z AUTO 27007KT 230V290 10SM CLR M01/M17 A3019 RMK AO2
KC07 152012Z AUTO 26006KT 10SM CLR M01/M16 A3020 RMK AO2
KC07 151954Z AUTO 25005KT 10SM CLR M02/M17 A3020 RMK AO2
KC07 151930Z AUTO 26005KT 10SM CLR M02/M18 A3021 RMK AO2
KC07 151912Z AUTO 26009G19KT 210V280 10SM CLR M02/M17 A3023 RMK AO2
KC07 151854Z AUTO 27010G18KT 10SM CLR M03/M17 A3024 RMK AO2
KC07 151830Z AUTO 27008KT 220V290 10SM CLR M03/M17 A3025 RMK AO2
KC07 151812Z AUTO 25007KT 220V280 10SM CLR M04/M16 A3026 RMK AO2
KC07 151754Z AUTO 26006G18KT 10SM CLR M05/M16 A3026 RMK AO2
KC07 151730Z AUTO 27009G21KT 10SM CLR M05/M15 A3027 RMK AO2
KC07 151712Z AUTO 27009G18KT 240V300 10SM CLR M06/M15 A3027 RMK AO2
KC07 151654Z AUTO 27010G18KT 240V300 10SM CLR M06/M13 A3027 RMK AO2
KC07 151630Z AUTO 27010G22KT 10SM CLR M07/M13 A3027 RMK AO2
KC07 151612Z AUTO 28009G22KT 10SM CLR M08/M13 A3026 RMK AO2
KC07 151554Z AUTO 28013G19KT 250V320 10SM CLR M08/M13 A3026 RMK AO2
KC07 151530Z AUTO 27010G16KT 10SM CLR M10/M12 A3025 RMK AO2
KC07 151512Z AUTO 26009G16KT 10SM CLR M10/M12 A3024 RMK AO2
KC07 151454Z AUTO 26008G14KT 10SM CLR M10/M12 A3024 RMK AO2
KC07 151430Z AUTO 26008G15KT 10SM CLR M11/M12 A3023 RMK AO2
KC07 151412Z AUTO 25009KT 10SM CLR M11/M12 A3022 RMK AO2
KC07 151354Z AUTO 25006KT 10SM CLR M11/M12 A3024 RMK AO2
KC07 151330Z AUTO 25006KT 10SM CLR M10/M12 A3024 RMK AO2
KC07 151312Z AUTO 26007KT 230V290 10SM CLR M11/M12 A3024 RMK AO2
KC07 151253Z AUTO 26010G17KT 10SM CLR M11/M12 A3024 RMK AO2
KC07 151229Z AUTO 25008G15KT 230V290 10SM CLR M11/M12 A3024 RMK AO2
KC07 151211Z AUTO 26007KT 240V300 10SM CLR M11/M12 A3024 RMK AO2
KC07 151153Z AUTO 24006KT 10SM CLR M11/M12 A3024 RMK AO2
KC07 151130Z AUTO 24006KT 10SM SCT120 M11/M12 A3024 RMK AO2
KC07 151112Z AUTO 24004KT 10SM SCT120 M11/M12 A3024 RMK AO2
KC07 151054Z AUTO 24005KT 10SM BKN120 M11/M12 A3025 RMK AO2
KC07 151030Z AUTO 25006KT 10SM SCT120 M11/M12 A3025 RMK AO2
KC07 151012Z AUTO 26007G16KT 10SM CLR M11/M12 A3026 RMK AO2
KC07 150954Z AUTO 26009G16KT 10SM CLR M11/M12 A3026 RMK AO2
KC07 150930Z AUTO 28011G17KT 10SM CLR M11/M12 A3026 RMK AO2
KC07 150912Z AUTO 27008G17KT 10SM CLR M11/M12 A3026 RMK AO2
KC07 150854Z AUTO 27010G15KT 10SM CLR M11/M12 A3026 RMK AO2
KC07 150830Z AUTO 26009G15KT 10SM CLR M11/M13 A3025 RMK AO2
KC07 150812Z AUTO 26007KT 10SM CLR M11/M12 A3024 RMK AO2
KC07 150754Z AUTO 26008G15KT 10SM CLR M11/M12 A3024 RMK AO2
KC07 150730Z AUTO 25005KT 10SM BKN003 BKN055 M11/M12 A3024 RMK AO2
KC07 150712Z AUTO 26006KT 10SM BKN001 BKN070 M11/M12 A3025 RMK AO2
KC07 150653Z AUTO 26006KT 10SM SCT001 M11/M12 A3026 RMK AO2
KC07 150630Z AUTO 24004KT 10SM CLR M11/M12 A3026 RMK AO2
KC07 150612Z AUTO 26006KT 10SM CLR M11/M12 A3026 RMK AO2
KC07 150554Z AUTO 27009KT 10SM CLR M11/M13 A3026 RMK AO2
KC07 150530Z AUTO 26009G15KT 230V290 10SM CLR M12/M13 A3026 RMK AO2
KC07 150512Z AUTO 26011KT 10SM CLR M12/M13 A3026 RMK AO2
KC07 150453Z AUTO 27012G17KT 10SM CLR M11/M13 A3026 RMK AO2
KC07 150429Z AUTO 28012G17KT 5SM BR BKN001 M11/M13 A3026 RMK AO2
KC07 150412Z AUTO 28011G17KT 4SM BR OVC001 M11/M13 A3025 RMK AO2
KC07 150354Z AUTO 28011G17KT 2SM BR OVC001 M12/M13 A3025 RMK AO2
KC07 150330Z AUTO 28012G17KT 1 3/4SM BR OVC001 M11/M13 A3026 RMK AO2
KC07 150312Z AUTO 29009G16KT 1SM BR OVC001 M11/M13 A3025 RMK AO2
KC07 150254Z AUTO 29009G18KT 260V320 2 1/2SM BR BKN001 BKN050 M11/M13 A3025 RMK AO2
KC07 150230Z AUTO 29008G16KT 10SM SCT001 M11/M13 A3024 RMK AO2
KC07 150212Z AUTO 30009G14KT 280V340 10SM CLR M11/M13 A3024 RMK AO2
KC07 150154Z AUTO 30008KT 270V340 10SM SCT001 M12/M13 A3024 RMK AO2
KC07 150130Z AUTO 30008G17KT 260V330 7SM OVC001 M11/M13 A3024 RMK AO2
KC07 150112Z AUTO 30008G16KT 7SM OVC001 M11/M12 A3023 RMK AO2
KC07 150054Z AUTO 29008G17KT 250V320 5SM BR OVC001 M11/M12 A3024 RMK AO2
KC07 150030Z AUTO 29009G15KT 240V350 7SM OVC001 M10/M12 A3024 RMK AO2
KC07 150012Z AUTO 28011G17KT 250V320 2 1/2SM BR OVC001 M10/M12 A3023 RMK AO2
KC07 142354Z AUTO 28009G18KT 240V310 2 1/2SM BR OVC001 M10/M12 A3022 RMK AO2 VIS 1 1/4V5
KC07 142330Z AUTO 29008KT 260V340 5SM BR BKN003 OVC010 M10/M11 A3022 RMK AO2
KC07 142312Z AUTO 29008G15KT 210V330 5SM -SN BKN001 OVC008 M10/M11 A3022 RMK AO2
KC07 142253Z AUTO 28007G15KT 160V300 2 1/2SM -SN BKN001 OVC006 M10/M11 A3022 RMK AO2 VIS 1 1/4V5
KC07 142229Z AUTO 27008G18KT 230V330 1 1/2SM -SN OVC001 M10/M11 A3022 RMK AO2 VIS 1/2V3
KC07 142212Z AUTO 28009G17KT 240V330 1 1/2SM -SN OVC001 M10/M11 A3022 RMK AO2 VIS 3/4V3
KC07 142154Z AUTO 28009G16KT 240V320 1 1/4SM -SN OVC001 M10/M11 A3022 RMK AO2
KC07 142130Z AUTO 27007G19KT 230V310 1SM -SN OVC001 M10/M11 A3021 RMK AO2
KC07 142112Z AUTO 27009G15KT 230V320 1SM -SN OVC001 M10/M11 A3020 RMK AO2
KC07 142054Z AUTO 29007G15KT 220V330 1 1/2SM -SN OVC001 M10/M11 A3020 RMK AO2
KC07 142030Z AUTO 27009G14KT 230V300 1SM -SN OVC001 M10/M11 A3019 RMK AO2
KC07 142012Z AUTO 27008G15KT 220V340 1 1/2SM -SN OVC003 M10/M11 A3019 RMK AO2 VIS 1/2V3
KC07 141954Z AUTO 29009G17KT 240V330 2SM -SN OVC003 M10/M11 A3019 RMK AO2 VIS 1 1/4V4
KC07 141930Z AUTO 28008G16KT 230V340 5SM -SN BKN003 OVC008 M10/M11 A3020 RMK AO2
KC07 141912Z AUTO 27005G16KT 3SM -SN BKN003 OVC006 M10/M11 A3019 RMK AO2
KC07 141854Z AUTO 30008G15KT 240V010 3SM BR OVC003 M10/M11 A3019 RMK AO2
KC07 141830Z AUTO 30009G16KT 250V350 2 1/2SM -SN BKN003 OVC006 M10/M11 A3019 RMK AO2 VIS 1 1/2V5
KC07 141812Z AUTO 29007G15KT 230V340 4SM -SN BKN003 OVC006 M10/M11 A3020 RMK AO2
KC07 141754Z AUTO 28007KT 230V330 3SM -SN OVC003 M10/M11 A3021 RMK AO2
KC07 141730Z AUTO 28005KT 1 1/4SM -SN OVC003 M10/M11 A3021 RMK AO2
KC07 141712Z AUTO 30006KT 2SM -SN OVC003 M10/M11 A3021 RMK AO2
KC07 141654Z AUTO 31006KT 5SM -SN BKN003 OVC006 M09/M11 A3020 RMK AO2
KC07 141630Z AUTO 34006KT 3SM -SN BKN003 OVC007 M09/M11 A3020 RMK AO2
KC07 141612Z AUTO 33007G14KT 220V030 5SM BR OVC001 M10/M11 A3019 RMK AO2
KC07 141554Z AUTO 32005KT 1/2SM FZFG OVC001 M10/M11 A3017 RMK AO2
KC07 141530Z AUTO 26007KT 170V340 1/2SM FZFG OVC001 M10/M11 A3017 RMK AO2